Time;durP1;ratioP1;P1;durP2;ratioP2;P2;SDS_P1;SDS_P2;PMS_P1;PMS_P2;Temp;Humidity;BMP_temperature;BMP_pressure;BME280_temperature;BME280_humidity;BME280_pressure;Samples;Min_cycle;Max_cycle;Signal;HPM_P1;HPM_P2
2021/12/24 00:00:09;;;;;;;8.07;2.10;;;8.80;99.90;;;;;;5044640;28;20114;-64
2021/12/24 00:02:37;;;;;;;17.83;2.95;;;8.80;99.90;;;;;;5046463;28;20138;-64
2021/12/24 00:05:06;;;;;;;14.23;2.22;;;8.80;99.90;;;;;;5047648;28;20047;-66
2021/12/24 00:07:32;;;;;;;11.35;4.05;;;8.70;99.90;;;;;;5046281;28;20090;-64
2021/12/24 00:09:59;;;;;;;17.73;3.50;;;8.70;99.90;;;;;;5047455;28;20562;-64
2021/12/24 00:12:29;;;;;;;10.30;2.17;;;8.70;99.90;;;;;;5048627;28;20493;-64
2021/12/24 00:15:02;;;;;;;12.02;2.88;;;8.70;99.90;;;;;;5047941;28;20549;-64
2021/12/24 00:17:32;;;;;;;10.90;2.83;;;8.70;99.90;;;;;;5031682;28;20076;-64
2021/12/24 00:20:12;;;;;;;15.90;3.72;;;8.60;99.90;;;;;;5048350;28;20419;-64
2021/12/24 00:36:25;;;;;;;14.30;2.65;;;8.50;99.90;;;;;;5043744;28;20550;-64
2021/12/24 00:38:52;;;;;;;16.17;2.95;;;8.50;99.90;;;;;;5046245;28;20045;-65
2021/12/24 00:41:18;;;;;;;15.82;2.33;;;8.50;99.90;;;;;;5045941;28;20045;-63
2021/12/24 00:43:45;;;;;;;13.45;2.70;;;8.50;99.90;;;;;;5047082;28;20508;-64
2021/12/24 00:46:12;;;;;;;9.57;1.92;;;8.50;99.90;;;;;;5046294;28;20622;-64
2021/12/24 00:48:39;;;;;;;9.60;2.53;;;8.40;99.90;;;;;;5045965;28;20106;-62
2021/12/24 00:56:00;;;;;;;9.07;2.40;;;8.40;99.90;;;;;;5052406;28;20487;-63
2021/12/24 00:58:27;;;;;;;14.23;3.05;;;8.30;99.90;;;;;;5052289;28;20053;-63
2021/12/24 01:00:54;;;;;;;16.52;3.65;;;8.40;99.90;;;;;;5034268;28;20719;-63
2021/12/24 01:03:21;;;;;;;17.95;2.88;;;8.40;99.90;;;;;;5053646;28;20543;-63
2021/12/24 01:05:48;;;;;;;14.98;3.35;;;8.40;99.90;;;;;;5053441;28;20069;-64
2021/12/24 01:08:14;;;;;;;13.50;2.17;;;8.40;99.90;;;;;;5052907;28;20048;-64
2021/12/24 01:10:56;;;;;;;18.50;2.80;;;8.40;99.90;;;;;;5052678;28;20091;-64
2021/12/24 01:13:26;;;;;;;12.95;2.97;;;8.30;99.90;;;;;;5054278;28;20492;-63
2021/12/24 01:16:01;;;;;;;12.70;2.35;;;8.30;99.90;;;;;;5053702;28;20126;-63
2021/12/24 01:23:41;;;;;;;10.88;2.10;;;8.30;99.90;;;;;;5054922;28;20044;-63
2021/12/24 01:26:12;;;;;;;12.75;2.50;;;8.30;99.90;;;;;;5055303;28;20037;-64
2021/12/24 01:44:51;;;;;;;15.02;3.60;;;8.00;99.90;;;;;;5051137;28;20045;-64
2021/12/24 01:47:18;;;;;;;20.73;4.18;;;8.00;99.90;;;;;;5053085;28;20689;-64
2021/12/24 01:49:45;;;;;;;16.33;4.03;;;8.00;99.90;;;;;;5052790;28;20041;-64
2021/12/24 01:52:15;;;;;;;9.40;4.10;;;8.00;99.90;;;;;;5053881;28;20472;-64
2021/12/24 01:54:44;;;;;;;11.07;4.13;;;7.90;99.90;;;;;;5053972;28;20072;-64
2021/12/24 01:57:12;;;;;;;20.30;5.55;;;7.90;99.90;;;;;;5052947;28;20139;-64
2021/12/24 01:59:40;;;;;;;13.20;5.45;;;7.90;99.90;;;;;;5053875;28;20053;-64
2021/12/24 02:02:07;;;;;;;15.65;4.45;;;7.90;99.90;;;;;;4703467;27;9999854;-64
2021/12/24 02:04:34;;;;;;;12.40;4.55;;;7.80;99.90;;;;;;5047605;28;20090;-64
2021/12/24 02:07:01;;;;;;;11.85;4.65;;;7.80;99.90;;;;;;5048834;28;20768;-64
2021/12/24 02:09:29;;;;;;;13.23;5.00;;;7.80;99.90;;;;;;5049468;28;20083;-63
2021/12/24 02:11:57;;;;;;;14.50;5.85;;;7.80;99.90;;;;;;5049354;28;20085;-63
2021/12/24 02:14:32;;;;;;;10.05;5.32;;;7.80;99.90;;;;;;5049518;28;20073;-64
2021/12/24 02:30:37;;;;;;;7.40;4.50;;;7.70;99.90;;;;;;5043404;28;20049;-63
2021/12/24 02:33:04;;;;;;;11.30;4.57;;;7.70;99.90;;;;;;5050266;28;20090;-66
2021/12/24 02:35:31;;;;;;;11.25;4.40;;;7.70;99.90;;;;;;5049905;28;20088;-63
2021/12/24 02:37:58;;;;;;;12.98;4.50;;;7.70;99.90;;;;;;5049087;28;20052;-63
2021/12/24 02:40:25;;;;;;;10.68;4.70;;;7.70;99.90;;;;;;5049714;28;20045;-63
2021/12/24 02:42:55;;;;;;;12.80;4.63;;;7.70;99.90;;;;;;5048374;28;20049;-63
2021/12/24 02:45:22;;;;;;;12.57;4.50;;;7.70;99.90;;;;;;5049887;28;20474;-63
2021/12/24 02:55:35;;;;;;;15.50;6.43;;;8.00;99.90;;;;;;5048050;28;20099;-63
2021/12/24 02:58:01;;;;;;;15.52;6.47;;;8.00;99.90;;;;;;5048694;28;20057;-62
2021/12/24 03:00:29;;;;;;;18.55;5.80;;;8.00;99.90;;;;;;5047964;28;20037;-64
2021/12/24 03:02:56;;;;;;;17.13;5.85;;;8.10;99.90;;;;;;5049424;28;20139;-63
2021/12/24 03:05:24;;;;;;;12.63;6.30;;;8.10;99.90;;;;;;5048998;28;20064;-62
2021/12/24 03:07:51;;;;;;;11.90;6.40;;;8.20;99.90;;;;;;5049358;28;20048;-63
2021/12/24 03:10:19;;;;;;;16.33;5.97;;;8.20;99.90;;;;;;5049309;28;20053;-62
2021/12/24 03:12:48;;;;;;;12.82;4.82;;;8.30;99.90;;;;;;5049448;28;20087;-63
2021/12/24 03:15:15;;;;;;;13.98;5.45;;;8.30;99.90;;;;;;5045669;28;20072;-63
2021/12/24 03:17:51;;;;;;;27.23;9.10;;;8.40;99.90;;;;;;5048974;28;20037;-63
2021/12/24 03:20:18;;;;;;;11.23;5.20;;;8.40;99.90;;;;;;5049008;28;20045;-63
2021/12/24 03:23:05;;;;;;;9.15;4.63;;;8.40;99.90;;;;;;5049557;28;20041;-63
2021/12/24 03:25:32;;;;;;;17.88;5.93;;;8.40;99.90;;;;;;5047202;28;20088;-63
2021/12/24 03:27:59;;;;;;;17.90;4.80;;;8.40;99.90;;;;;;5047650;28;20049;-63
2021/12/24 03:30:26;;;;;;;12.80;5.45;;;8.40;99.90;;;;;;5047909;28;20260;-63
2021/12/24 03:32:53;;;;;;;19.15;4.55;;;8.40;99.90;;;;;;5048914;28;20091;-63
2021/12/24 03:35:20;;;;;;;19.00;5.82;;;8.40;99.90;;;;;;5046621;28;20037;-63
2021/12/24 03:37:46;;;;;;;12.38;4.60;;;8.30;99.90;;;;;;5048532;28;20115;-63
2021/12/24 03:40:13;;;;;;;14.88;4.82;;;8.30;99.90;;;;;;5030673;28;20099;-63
2021/12/24 03:42:42;;;;;;;8.65;3.80;;;8.10;99.90;;;;;;5047735;28;20084;-63
2021/12/24 03:45:26;;;;;;;16.30;5.75;;;8.20;99.90;;;;;;5046614;28;20045;-62
2021/12/24 03:47:59;;;;;;;15.27;5.72;;;8.10;99.90;;;;;;5048995;28;20095;-62
2021/12/24 03:50:39;;;;;;;20.38;4.78;;;8.10;99.90;;;;;;5049792;28;20048;-63
2021/12/24 03:54:56;;;;;;;17.88;4.60;;;8.10;99.90;;;;;;5048540;28;20053;-63
2021/12/24 03:55:53;;;;;;;21.25;5.78;;;8.10;99.90;;;;;;5047758;28;20041;-64
2021/12/24 03:58:19;;;;;;;14.80;4.25;;;8.10;99.90;;;;;;5048088;28;20060;-63
2021/12/24 04:00:46;;;;;;;16.00;4.00;;;8.10;99.90;;;;;;5030755;28;20064;-63
2021/12/24 04:03:13;;;;;;;12.82;4.72;;;8.10;99.90;;;;;;5039352;28;20046;-63
2021/12/24 04:05:40;;;;;;;13.25;4.07;;;8.10;99.90;;;;;;5048342;28;20615;-63
2021/12/24 04:08:07;;;;;;;20.30;4.50;;;8.10;99.90;;;;;;5048446;28;20040;-63
2021/12/24 04:10:42;;;;;;;17.50;4.05;;;8.20;99.90;;;;;;5047618;28;20079;-63
2021/12/24 04:13:10;;;;;;;21.25;3.72;;;8.20;99.90;;;;;;5046736;28;20103;-63
2021/12/24 04:15:37;;;;;;;15.88;3.88;;;8.30;99.90;;;;;;5047690;28;20072;-62
2021/12/24 04:18:13;;;;;;;13.98;4.00;;;8.20;99.90;;;;;;5048236;28;20091;-63
2021/12/24 04:26:10;;;;;;;16.45;3.83;;;8.20;99.90;;;;;;5041130;28;20094;-63
2021/12/24 04:28:37;;;;;;;22.75;3.95;;;8.20;99.90;;;;;;5046731;28;20094;-63
2021/12/24 04:31:04;;;;;;;13.15;3.83;;;8.20;99.90;;;;;;5047596;28;20095;-63
2021/12/24 04:33:37;;;;;;;13.80;3.88;;;8.20;99.90;;;;;;5048255;28;20098;-63
2021/12/24 05:03:23;;;;;;;17.67;5.38;;;8.70;99.90;;;;;;5042784;28;20052;-64
2021/12/24 05:05:55;;;;;;;25.33;4.95;;;8.70;99.90;;;;;;5045051;28;20080;-63
2021/12/24 05:08:24;;;;;;;17.40;6.10;;;8.70;99.90;;;;;;5046896;28;20076;-63
2021/12/24 05:10:52;;;;;;;12.20;4.95;;;8.80;99.90;;;;;;5047768;28;20504;-62
2021/12/24 05:13:20;;;;;;;13.98;4.60;;;8.80;99.90;;;;;;5047739;28;20107;-64
2021/12/24 05:15:50;;;;;;;15.65;4.90;;;8.80;99.90;;;;;;5047362;28;20080;-63
2021/12/24 05:21:42;;;;;;;14.32;4.85;;;8.80;99.90;;;;;;5047792;28;20049;-64
2021/12/24 05:23:40;;;;;;;20.88;4.45;;;8.70;99.90;;;;;;5036100;28;20495;-63
2021/12/24 05:26:07;;;;;;;18.85;5.07;;;8.70;99.90;;;;;;5047493;28;20523;-64
2021/12/24 05:28:34;;;;;;;24.02;7.10;;;8.70;99.90;;;;;;5047462;28;20103;-63
2021/12/24 05:31:02;;;;;;;16.95;5.22;;;8.70;99.90;;;;;;5047524;28;20076;-63
2021/12/24 05:33:29;;;;;;;14.88;4.50;;;8.70;99.90;;;;;;5047670;28;20049;-64
2021/12/24 05:35:55;;;;;;;17.08;4.97;;;8.60;99.90;;;;;;5047140;28;20480;-63
2021/12/24 05:38:22;;;;;;;24.95;5.57;;;8.50;99.90;;;;;;5048366;28;20492;-63
2021/12/24 05:40:49;;;;;;;24.80;5.28;;;8.50;99.90;;;;;;5051030;28;20136;-63
2021/12/24 05:43:16;;;;;;;23.02;5.47;;;8.50;99.90;;;;;;5051056;28;20508;-62
2021/12/24 05:45:43;;;;;;;15.70;5.35;;;8.50;99.90;;;;;;5050708;28;20041;-63
2021/12/24 05:48:09;;;;;;;17.98;5.07;;;8.40;99.90;;;;;;5049733;28;20095;-63
2021/12/24 05:50:36;;;;;;;19.30;5.75;;;8.40;99.90;;;;;;5049275;28;20076;-63
2021/12/24 05:53:03;;;;;;;17.20;6.90;;;8.50;99.90;;;;;;5050894;28;20527;-62
2021/12/24 05:55:30;;;;;;;18.17;5.22;;;8.50;99.90;;;;;;5050543;28;20523;-63
2021/12/24 05:57:57;;;;;;;21.88;6.70;;;8.50;99.90;;;;;;5050570;28;20084;-62
2021/12/24 06:00:23;;;;;;;18.25;5.18;;;8.60;99.90;;;;;;5050398;28;20104;-63
2021/12/24 06:02:50;;;;;;;22.95;5.97;;;8.60;99.90;;;;;;5050478;28;20083;-63
2021/12/24 06:05:17;;;;;;;19.60;7.20;;;8.60;99.90;;;;;;5050508;28;20045;-63
2021/12/24 06:07:44;;;;;;;16.08;5.60;;;8.70;99.90;;;;;;5050951;28;20045;-65
2021/12/24 06:10:11;;;;;;;17.83;5.80;;;8.60;99.90;;;;;;5051101;28;20041;-62
2021/12/24 06:12:38;;;;;;;19.70;5.05;;;8.60;99.90;;;;;;5051711;28;20037;-62
2021/12/24 06:15:07;;;;;;;21.95;6.57;;;8.70;99.90;;;;;;5050638;28;20058;-63
2021/12/24 06:17:36;;;;;;;19.77;5.45;;;8.70;99.90;;;;;;5050254;28;20041;-63
2021/12/24 06:20:07;;;;;;;19.85;6.53;;;8.70;99.90;;;;;;5050373;28;20067;-63
2021/12/24 06:22:34;;;;;;;16.98;5.25;;;8.70;99.90;;;;;;5047985;28;20439;-63
2021/12/24 06:25:01;;;;;;;13.95;5.70;;;8.70;99.90;;;;;;5049936;28;20049;-63
2021/12/24 06:27:28;;;;;;;26.27;6.72;;;8.70;99.90;;;;;;5050074;28;20547;-64
2021/12/24 06:29:55;;;;;;;16.05;6.05;;;8.70;99.90;;;;;;5050060;28;20691;-64
2021/12/24 06:32:25;;;;;;;18.98;6.47;;;8.70;99.90;;;;;;5049760;28;20072;-63
2021/12/24 06:34:52;;;;;;;21.83;6.88;;;8.70;99.90;;;;;;5050010;28;20056;-64
2021/12/24 06:37:19;;;;;;;27.23;7.60;;;8.70;99.90;;;;;;5049680;28;20049;-63
2021/12/24 06:39:46;;;;;;;15.18;7.03;;;8.70;99.90;;;;;;5048706;28;20089;-63
2021/12/24 06:42:12;;;;;;;18.13;7.43;;;8.60;99.90;;;;;;5048507;28;20049;-63
2021/12/24 06:44:39;;;;;;;16.20;6.47;;;8.70;99.90;;;;;;5049827;28;20045;-64
2021/12/24 06:47:06;;;;;;;15.48;5.95;;;8.60;99.90;;;;;;5049592;28;20463;-66
2021/12/24 06:49:34;;;;;;;31.85;7.38;;;8.60;99.90;;;;;;5049642;28;20140;-64
2021/12/24 06:52:00;;;;;;;29.95;7.97;;;8.60;99.90;;;;;;5048698;28;20045;-64
2021/12/24 06:54:27;;;;;;;20.50;8.13;;;8.60;99.90;;;;;;5049847;28;20052;-63
2021/12/24 06:56:54;;;;;;;28.38;7.45;;;8.60;99.90;;;;;;5049695;28;20115;-65
2021/12/24 06:59:21;;;;;;;24.52;8.00;;;8.50;99.90;;;;;;5049714;28;20057;-64
2021/12/24 07:01:48;;;;;;;27.00;7.72;;;8.40;99.90;;;;;;5049902;28;20057;-63
2021/12/24 07:04:15;;;;;;;21.42;7.80;;;8.40;99.90;;;;;;5022291;28;20059;-63
2021/12/24 07:06:45;;;;;;;22.65;6.82;;;8.40;99.90;;;;;;5049915;28;20106;-64
2021/12/24 07:09:13;;;;;;;26.13;9.95;;;8.30;99.90;;;;;;5049545;28;20573;-64
2021/12/24 07:11:41;;;;;;;20.85;8.20;;;8.30;99.90;;;;;;5048381;28;20103;-63
2021/12/24 07:14:08;;;;;;;18.73;7.53;;;8.30;99.90;;;;;;5047513;28;20045;-63
2021/12/24 07:16:35;;;;;;;27.58;7.68;;;8.30;99.90;;;;;;5049076;28;20081;-63
2021/12/24 07:19:02;;;;;;;22.38;9.35;;;8.40;99.90;;;;;;5048868;28;20052;-63
2021/12/24 07:21:28;;;;;;;16.98;7.43;;;8.40;99.90;;;;;;5049134;28;20049;-63
2021/12/24 07:23:55;;;;;;;23.58;8.05;;;8.40;99.90;;;;;;5045847;28;20451;-63
2021/12/24 07:26:22;;;;;;;31.17;10.13;;;8.50;99.90;;;;;;5049145;28;20053;-64
2021/12/24 07:28:49;;;;;;;21.17;9.00;;;8.50;99.90;;;;;;5049048;28;20077;-64
2021/12/24 07:31:16;;;;;;;31.35;8.25;;;8.50;99.90;;;;;;5049234;28;20045;-63
2021/12/24 07:33:43;;;;;;;23.10;9.10;;;8.50;99.90;;;;;;5048342;28;20049;-63
2021/12/24 07:36:09;;;;;;;27.23;7.32;;;8.60;99.90;;;;;;5049304;28;20122;-63
2021/12/24 07:38:36;;;;;;;20.77;7.70;;;8.50;99.90;;;;;;5047429;28;20126;-62
2021/12/24 07:41:04;;;;;;;23.85;7.35;;;8.60;99.90;;;;;;5041189;28;20044;-63
2021/12/24 07:43:30;;;;;;;14.30;7.30;;;8.50;99.90;;;;;;5048554;28;20076;-63
2021/12/24 07:45:57;;;;;;;21.42;7.72;;;8.50;99.90;;;;;;5046777;28;20115;-63
2021/12/24 07:48:28;;;;;;;22.85;8.32;;;8.50;99.90;;;;;;5046031;28;20051;-63
2021/12/24 07:53:23;;;;;;;23.33;8.60;;;8.50;99.90;;;;;;5047577;28;20204;-63
2021/12/24 07:55:50;;;;;;;20.13;9.25;;;8.50;99.90;;;;;;5047660;28;20566;-63
2021/12/24 07:58:18;;;;;;;22.13;7.80;;;8.40;99.90;;;;;;5047735;28;20048;-63
2021/12/24 08:00:45;;;;;;;30.38;8.75;;;8.40;99.90;;;;;;5046549;28;20068;-63
2021/12/24 08:03:12;;;;;;;23.73;7.28;;;8.40;99.90;;;;;;5047026;28;20542;-63
2021/12/24 08:05:40;;;;;;;24.55;8.60;;;8.50;99.90;;;;;;5047042;28;20110;-63
2021/12/24 08:08:08;;;;;;;22.27;9.00;;;8.50;99.90;;;;;;5047515;28;20122;-63
2021/12/24 08:10:35;;;;;;;20.95;9.38;;;8.50;99.90;;;;;;5046919;28;20106;-63
2021/12/24 08:13:02;;;;;;;26.08;8.57;;;8.60;99.90;;;;;;5046926;28;20083;-62
2021/12/24 08:15:29;;;;;;;20.40;8.15;;;8.60;99.90;;;;;;5047320;28;20132;-63
2021/12/24 08:17:56;;;;;;;18.40;7.60;;;8.60;99.90;;;;;;5045686;28;20053;-63
2021/12/24 08:20:24;;;;;;;24.02;9.65;;;8.60;99.90;;;;;;5039496;28;20095;-63
2021/12/24 08:22:53;;;;;;;17.33;8.05;;;8.50;99.90;;;;;;5047214;28;20302;-67
2021/12/24 08:25:20;;;;;;;23.60;9.27;;;8.50;99.90;;;;;;5045372;28;20076;-63
2021/12/24 08:27:47;;;;;;;24.05;8.07;;;8.50;99.90;;;;;;5047210;28;20490;-63
2021/12/24 08:30:14;;;;;;;21.70;8.57;;;8.60;99.90;;;;;;5046954;28;20492;-63
2021/12/24 08:32:42;;;;;;;23.15;8.10;;;8.60;99.90;;;;;;5046923;28;20076;-63
2021/12/24 08:35:12;;;;;;;18.38;7.45;;;8.60;99.90;;;;;;5045902;28;20072;-63
2021/12/24 08:37:38;;;;;;;23.38;8.93;;;8.60;99.90;;;;;;5041447;28;20067;-63
2021/12/24 08:40:06;;;;;;;23.00;7.47;;;8.60;99.90;;;;;;5047342;28;20084;-63
2021/12/24 08:42:33;;;;;;;24.30;7.40;;;8.60;99.90;;;;;;5046697;28;20065;-63
2021/12/24 08:45:00;;;;;;;23.35;8.77;;;8.70;99.90;;;;;;5046783;28;20110;-62
2021/12/24 08:47:27;;;;;;;20.83;8.10;;;8.70;99.90;;;;;;5045982;28;20088;-61
2021/12/24 08:49:54;;;;;;;14.70;7.38;;;8.80;99.90;;;;;;5045415;28;20560;-61
2021/12/24 08:52:20;;;;;;;21.45;9.75;;;8.80;99.90;;;;;;5044667;28;20037;-62
2021/12/24 08:54:47;;;;;;;23.80;8.40;;;8.80;99.90;;;;;;5044554;28;20575;-62
2021/12/24 08:57:14;;;;;;;29.13;8.40;;;8.70;99.90;;;;;;5044472;28;20504;-63
2021/12/24 08:59:41;;;;;;;25.92;8.73;;;8.70;99.90;;;;;;5044896;28;20196;-62
2021/12/24 09:02:15;;;;;;;22.77;8.35;;;8.80;99.90;;;;;;5044689;28;20048;-62
2021/12/24 09:04:42;;;;;;;29.85;8.35;;;8.90;99.90;;;;;;5044371;28;20665;-62
2021/12/24 09:07:10;;;;;;;26.42;9.38;;;8.80;99.90;;;;;;5044847;28;20044;-62
2021/12/24 09:09:37;;;;;;;16.70;8.43;;;8.90;99.90;;;;;;5044364;28;20053;-62
2021/12/24 09:12:04;;;;;;;24.75;10.38;;;8.90;99.90;;;;;;5047133;28;20041;-61
2021/12/24 09:14:31;;;;;;;29.75;9.77;;;8.90;99.90;;;;;;5050167;28;20103;-62
2021/12/24 09:17:00;;;;;;;22.58;7.93;;;8.90;99.90;;;;;;5048835;28;20088;-61
2021/12/24 09:19:29;;;;;;;27.25;10.00;;;9.00;99.90;;;;;;5048293;28;20045;-61
2021/12/24 09:21:57;;;;;;;23.45;9.20;;;9.00;99.90;;;;;;5050171;28;20098;-62
2021/12/24 09:24:26;;;;;;;22.85;8.73;;;9.00;99.90;;;;;;5050204;28;20041;-63
2021/12/24 09:26:56;;;;;;;26.67;9.30;;;9.10;99.90;;;;;;5048369;28;20543;-61
2021/12/24 09:29:23;;;;;;;21.15;7.90;;;9.10;99.90;;;;;;5043309;28;20041;-60
2021/12/24 09:31:50;;;;;;;21.33;8.27;;;9.10;99.90;;;;;;5049477;28;20055;-60
2021/12/24 09:34:17;;;;;;;25.65;8.98;;;9.10;99.90;;;;;;5049743;28;20103;-61
2021/12/24 09:36:48;;;;;;;26.48;8.10;;;9.20;99.90;;;;;;4847216;28;10000498;-61
2021/12/24 09:39:15;;;;;;;21.67;10.20;;;9.20;99.90;;;;;;5043785;28;20256;-61
2021/12/24 09:41:42;;;;;;;20.08;7.80;;;9.20;99.90;;;;;;5047040;28;20059;-61
2021/12/24 09:44:10;;;;;;;25.27;8.88;;;9.20;99.90;;;;;;5046341;28;20053;-61
2021/12/24 09:46:42;;;;;;;23.75;8.40;;;9.20;99.90;;;;;;5047182;28;20049;-60
2021/12/24 09:49:10;;;;;;;20.73;8.48;;;9.30;99.90;;;;;;5045393;28;20064;-61
2021/12/24 09:51:38;;;;;;;24.98;9.45;;;9.30;99.90;;;;;;5046537;28;20403;-61
2021/12/24 09:54:13;;;;;;;19.80;10.15;;;9.30;99.90;;;;;;5046272;28;20151;-60
2021/12/24 09:56:40;;;;;;;24.33;9.00;;;9.40;99.90;;;;;;5040730;28;20080;-61
2021/12/24 09:59:07;;;;;;;18.75;9.02;;;9.40;99.90;;;;;;5046488;28;20049;-60
2021/12/24 10:01:36;;;;;;;25.30;8.88;;;9.40;99.90;;;;;;5046062;28;20098;-61
2021/12/24 10:04:05;;;;;;;25.45;9.40;;;9.50;99.90;;;;;;5046697;28;20591;-62
2021/12/24 10:06:32;;;;;;;27.27;8.80;;;9.50;99.90;;;;;;5046212;28;20391;-60
2021/12/24 10:09:08;;;;;;;23.55;9.38;;;9.50;99.90;;;;;;5044935;28;20092;-60
2021/12/24 10:11:52;;;;;;;27.63;9.70;;;9.50;99.90;;;;;;5045718;28;20164;-61
2021/12/24 10:14:20;;;;;;;23.83;9.60;;;9.60;99.90;;;;;;5044060;28;20084;-61
2021/12/24 10:16:50;;;;;;;26.35;9.13;;;9.60;99.90;;;;;;5046171;28;20080;-61
2021/12/24 10:19:19;;;;;;;30.70;11.52;;;9.60;99.90;;;;;;5044548;28;20072;-61
2021/12/24 10:21:47;;;;;;;29.67;9.90;;;9.60;99.90;;;;;;5046029;28;20053;-60
2021/12/24 10:24:18;;;;;;;28.75;11.38;;;9.70;99.90;;;;;;5044943;28;20106;-61
2021/12/24 10:26:52;;;;;;;42.78;12.60;;;9.70;99.90;;;;;;5044305;28;20129;-61
2021/12/24 10:29:32;;;;;;;41.25;13.48;;;9.70;99.90;;;;;;5045414;28;20649;-61
2021/12/24 10:32:13;;;;;;;26.35;11.32;;;9.70;99.90;;;;;;5045214;28;20103;-61
2021/12/24 10:34:40;;;;;;;31.20;10.70;;;9.70;99.90;;;;;;5043728;28;20352;-61
2021/12/24 10:37:22;;;;;;;25.35;10.07;;;9.80;99.90;;;;;;5044595;28;20523;-60
2021/12/24 10:40:08;;;;;;;30.13;10.23;;;9.80;99.90;;;;;;5044589;28;20052;-61
2021/12/24 10:42:36;;;;;;;24.05;8.57;;;9.80;99.90;;;;;;5045199;28;20052;-62
2021/12/24 10:45:08;;;;;;;24.67;9.15;;;9.80;99.90;;;;;;5045064;28;20045;-60
2021/12/24 10:47:39;;;;;;;30.35;9.27;;;9.80;99.90;;;;;;5043233;28;20057;-60
2021/12/24 10:52:58;;;;;;;33.53;9.95;;;9.80;99.90;;;;;;5045327;28;20311;-60
2021/12/24 10:55:26;;;;;;;30.55;11.05;;;9.90;99.90;;;;;;5044437;28;20052;-60
2021/12/24 10:57:53;;;;;;;31.98;11.05;;;9.90;99.90;;;;;;5044825;28;20045;-61
2021/12/24 11:00:31;;;;;;;28.92;10.32;;;9.90;99.90;;;;;;5044578;28;20136;-61
2021/12/24 11:03:06;;;;;;;23.50;11.35;;;9.90;99.90;;;;;;5045676;28;20059;-60
2021/12/24 11:05:36;;;;;;;28.08;11.05;;;10.00;99.90;;;;;;5044723;28;20580;-62
2021/12/24 11:08:05;;;;;;;34.45;12.85;;;10.00;99.90;;;;;;5045354;28;20040;-60
2021/12/24 11:10:34;;;;;;;35.15;10.40;;;10.00;99.90;;;;;;5026925;28;20369;-61
2021/12/24 11:13:08;;;;;;;29.30;11.07;;;10.10;99.90;;;;;;5042029;28;20489;-60
2021/12/24 11:15:37;;;;;;;32.33;11.02;;;10.20;99.90;;;;;;5044081;28;20045;-60
2021/12/24 11:18:13;;;;;;;31.40;11.50;;;10.20;99.90;;;;;;5042898;28;20049;-60
2021/12/24 11:20:40;;;;;;;28.17;10.75;;;10.20;99.90;;;;;;5041898;28;20149;-60
2021/12/24 11:23:12;;;;;;;36.70;13.13;;;10.30;99.90;;;;;;5037090;28;20068;-60
2021/12/24 11:25:41;;;;;;;32.45;13.25;;;10.30;99.90;;;;;;5043387;28;20522;-60
2021/12/24 11:28:08;;;;;;;35.83;11.73;;;10.40;99.90;;;;;;5036709;28;20076;-60
2021/12/24 11:30:36;;;;;;;32.28;10.35;;;10.40;99.90;;;;;;5043476;28;20045;-60
2021/12/24 11:33:03;;;;;;;28.27;12.27;;;10.40;99.90;;;;;;5043287;28;20049;-59
2021/12/24 11:35:30;;;;;;;30.85;12.05;;;10.50;99.90;;;;;;5043007;28;20102;-60
2021/12/24 11:37:59;;;;;;;32.28;11.90;;;10.50;99.90;;;;;;5042108;28;20045;-60
2021/12/24 11:40:26;;;;;;;30.67;9.70;;;10.50;99.90;;;;;;5035388;28;20052;-61
2021/12/24 11:43:03;;;;;;;21.80;7.57;;;10.60;99.90;;;;;;5044062;28;20075;-60
2021/12/24 11:45:31;;;;;;;27.05;7.78;;;10.60;99.90;;;;;;5035731;28;20382;-60
2021/12/24 11:47:58;;;;;;;19.67;7.25;;;10.70;99.90;;;;;;5043314;28;20149;-61
2021/12/24 11:50:29;;;;;;;24.77;7.00;;;10.70;99.90;;;;;;5043302;28;20069;-61
2021/12/24 11:52:57;;;;;;;21.98;9.38;;;10.80;99.90;;;;;;5043960;28;20079;-60
2021/12/24 11:55:25;;;;;;;22.90;7.35;;;10.80;99.90;;;;;;5043058;28;20495;-61
2021/12/24 11:58:03;;;;;;;27.88;6.32;;;10.80;99.90;;;;;;5041998;28;20052;-60
2021/12/24 12:00:36;;;;;;;13.95;5.13;;;10.90;99.90;;;;;;5029364;28;20967;-61
2021/12/24 12:03:06;;;;;;;15.07;5.10;;;10.90;99.90;;;;;;5037492;28;20053;-61
2021/12/24 12:05:35;;;;;;;23.83;6.28;;;11.00;99.90;;;;;;5042648;28;20457;-60
2021/12/24 12:08:24;;;;;;;18.10;5.45;;;11.00;99.90;;;;;;5042123;28;20084;-60
2021/12/24 12:10:56;;;;;;;17.88;4.53;;;11.00;99.90;;;;;;5043901;28;20052;-60
2021/12/24 12:13:39;;;;;;;17.15;4.32;;;11.00;99.90;;;;;;5035432;28;20114;-59
2021/12/24 12:16:10;;;;;;;22.85;6.18;;;11.00;99.30;;;;;;5042644;28;20735;-60
2021/12/24 12:18:44;;;;;;;18.27;4.65;;;11.00;99.80;;;;;;5042383;28;20040;-60
2021/12/24 12:21:12;;;;;;;15.88;4.53;;;10.90;99.70;;;;;;5044274;28;20118;-60
2021/12/24 12:26:41;;;;;;;19.98;4.22;;;10.90;99.80;;;;;;5041581;28;20049;-60
2021/12/24 12:29:28;;;;;;;17.35;3.80;;;10.90;99.60;;;;;;5035326;28;20102;-61
2021/12/24 12:32:27;;;;;;;16.23;4.15;;;10.80;99.40;;;;;;5038989;28;20250;-59
2021/12/24 12:34:58;;;;;;;14.27;3.58;;;10.80;99.20;;;;;;5032189;28;20106;-62
2021/12/24 12:37:52;;;;;;;19.05;4.40;;;10.80;99.50;;;;;;5041588;28;20096;-59
2021/12/24 12:40:19;;;;;;;18.83;3.95;;;10.70;99.00;;;;;;5040102;28;20077;-60
2021/12/24 12:42:49;;;;;;;15.88;4.82;;;10.70;99.40;;;;;;5042146;28;20206;-60
2021/12/24 12:45:41;;;;;;;17.85;3.83;;;10.80;99.50;;;;;;5041313;28;20432;-60
2021/12/24 12:48:26;;;;;;;19.48;6.03;;;10.80;99.50;;;;;;5029347;28;20056;-60
2021/12/24 12:50:55;;;;;;;18.13;4.50;;;10.80;99.40;;;;;;5041270;28;20048;-60
2021/12/24 12:53:22;;;;;;;15.45;4.82;;;10.80;99.50;;;;;;5042034;28;20378;-61
2021/12/24 12:56:08;;;;;;;19.08;5.97;;;10.90;99.50;;;;;;5038192;28;20041;-60
2021/12/24 12:58:35;;;;;;;17.23;3.88;;;10.90;99.30;;;;;;5039254;28;20080;-60
2021/12/24 13:01:13;;;;;;;16.70;4.05;;;10.90;99.30;;;;;;5042024;28;20080;-60
2021/12/24 13:03:56;;;;;;;12.98;3.70;;;10.90;99.10;;;;;;5040231;28;20045;-61
2021/12/24 13:06:46;;;;;;;10.45;3.83;;;10.90;98.90;;;;;;5040768;28;20045;-61
2021/12/24 13:09:16;;;;;;;11.93;3.92;;;11.00;99.30;;;;;;5042418;28;20041;-62
2021/12/24 13:11:45;;;;;;;14.68;3.15;;;11.00;99.10;;;;;;5043107;28;20057;-61
2021/12/24 13:14:13;;;;;;;15.35;3.72;;;11.00;99.00;;;;;;5040804;28;20059;-60
2021/12/24 13:17:04;;;;;;;13.43;2.95;;;11.00;98.90;;;;;;5041548;28;20226;-60
2021/12/24 13:25:05;;;;;;;10.82;3.15;;;11.00;99.00;;;;;;5041743;28;20049;-60
2021/12/24 13:27:37;;;;;;;11.13;3.45;;;11.00;99.00;;;;;;5042291;28;20056;-60
2021/12/24 13:30:08;;;;;;;10.88;4.78;;;11.00;98.90;;;;;;5043456;28;20095;-61
2021/12/24 13:32:50;;;;;;;12.55;3.63;;;11.00;98.80;;;;;;5040880;28;20057;-60
2021/12/24 13:35:25;;;;;;;15.50;3.63;;;11.00;98.80;;;;;;5039843;28;20155;-60
2021/12/24 13:37:54;;;;;;;16.13;4.90;;;11.00;99.20;;;;;;5039834;28;20484;-61
2021/12/24 13:40:22;;;;;;;16.85;4.25;;;10.90;98.90;;;;;;5045499;28;20099;-61
2021/12/24 13:42:51;;;;;;;16.30;4.15;;;11.00;99.20;;;;;;5038219;28;20077;-64
2021/12/24 13:45:18;;;;;;;18.40;3.78;;;11.00;99.20;;;;;;5042421;28;20087;-61
2021/12/24 13:55:38;;;;;;;11.27;3.47;;;11.00;99.30;;;;;;5041659;28;20471;-61
2021/12/24 13:58:07;;;;;;;11.73;3.33;;;10.90;99.40;;;;;;5041410;28;20073;-61
2021/12/24 14:00:36;;;;;;;8.82;3.60;;;11.00;99.40;;;;;;5045241;28;20099;-61
2021/12/24 14:03:05;;;;;;;8.52;3.08;;;10.90;99.30;;;;;;5045702;28;20049;-62
2021/12/24 14:05:32;;;;;;;12.20;3.05;;;10.90;99.30;;;;;;5045964;28;20566;-61
2021/12/24 14:08:20;;;;;;;12.77;2.85;;;10.90;99.30;;;;;;5044896;28;20126;-61
2021/12/24 14:10:48;;;;;;;14.20;3.17;;;10.90;99.10;;;;;;5041706;28;20088;-61
2021/12/24 14:13:26;;;;;;;10.70;2.75;;;10.90;99.30;;;;;;5045419;28;20053;-61
2021/12/24 14:18:49;;;;;;;10.90;3.42;;;10.90;99.40;;;;;;5036677;28;20053;-61
2021/12/24 14:24:12;;;;;;;14.05;4.75;;;10.90;99.30;;;;;;5045697;28;20051;-61
2021/12/24 14:26:44;;;;;;;11.55;2.80;;;10.90;99.30;;;;;;5046178;28;20049;-61
2021/12/24 14:29:11;;;;;;;13.10;3.17;;;10.80;99.40;;;;;;5046506;28;20045;-62
2021/12/24 14:31:59;;;;;;;13.98;3.63;;;10.80;99.30;;;;;;5046324;28;20052;-61
2021/12/24 14:34:38;;;;;;;14.90;3.78;;;10.80;99.30;;;;;;5046427;28;20220;-63
2021/12/24 14:37:25;;;;;;;15.80;6.13;;;10.80;99.30;;;;;;5039923;28;20390;-62
2021/12/24 14:39:53;;;;;;;17.38;5.18;;;10.80;99.50;;;;;;5045421;28;20048;-62
2021/12/24 14:42:26;;;;;;;18.88;4.55;;;10.80;99.30;;;;;;5046149;28;20072;-61
2021/12/24 14:45:27;;;;;;;12.75;4.43;;;10.80;99.20;;;;;;5045717;28;20045;-61
2021/12/24 14:48:17;;;;;;;10.25;4.25;;;10.70;99.10;;;;;;5046748;28;20504;-61
2021/12/24 14:51:06;;;;;;;19.90;4.53;;;10.70;99.10;;;;;;5047370;28;20399;-60
2021/12/24 14:53:40;;;;;;;13.05;4.05;;;10.70;99.10;;;;;;5041450;28;20119;-61
2021/12/24 14:56:15;;;;;;;11.60;3.55;;;10.70;99.40;;;;;;5047344;28;20045;-61
2021/12/24 14:58:49;;;;;;;18.92;3.65;;;10.70;99.20;;;;;;5046891;28;20496;-60
2021/12/24 15:01:21;;;;;;;15.18;3.25;;;10.60;99.40;;;;;;5046526;28;20110;-62